METAR Data
IDs: Format: Raw Decoded Include TAF

Data at: 1350 UTC 07 Oct 2022

KSAT 071251Z 30004KT 10SM OVC180 21/14 A3022 RMK AO2 SLP216 T02060139

KSSF 071253Z 00000KT 10SM CLR 21/16 A3019 RMK AO2 SLP214 T02060156

KHYI 071256Z 00000KT 10SM CLR 19/13 A3022 RMK AO2 SLP224 T01900130 $

KAUS 071253Z 00000KT 10SM BKN230 BKN300 18/14 A3020 RMK AO2 SLP221 T01780144